Time;durP1;ratioP1;P1;durP2;ratioP2;P2;SDS_P1;SDS_P2;PMS_P1;PMS_P2;Temp;Humidity;BMP_temperature;BMP_pressure;BME280_temperature;BME280_humidity;BME280_pressure;Samples;Min_cycle;Max_cycle;Signal;HPM_P1;HPM_P2
2021/12/30 00:01:39;;;;;;;97.63;40.40;;;;;;;5.28;100.00;98248.16;4906582;29;20198;-86
2021/12/30 00:04:05;;;;;;;86.03;36.70;;;;;;;7.18;100.00;98556.53;4906449;29;20478;-87
2021/12/30 00:06:38;;;;;;;86.83;36.73;;;;;;;7.33;100.00;98563.09;4906301;29;20193;-87
2021/12/30 00:09:05;;;;;;;59.13;26.07;;;;;;;5.90;100.00;98303.72;4925407;29;20202;-87
2021/12/30 00:11:30;;;;;;;54.33;25.67;;;;;;;5.22;100.00;98188.53;4928729;29;20223;-85
2021/12/30 00:13:56;;;;;;;47.03;22.90;;;;;;;6.30;100.00;98361.56;4926415;29;20226;-88
2021/12/30 00:16:23;;;;;;;45.33;20.97;;;;;;;6.83;100.00;98426.72;4927058;29;20178;-89
2021/12/30 00:18:49;;;;;;;34.53;17.50;;;;;;;7.56;100.00;98557.34;4928433;29;20287;-88
2021/12/30 00:21:15;;;;;;;40.17;19.90;;;;;;;7.77;100.00;98567.47;4929228;29;20612;-87
2021/12/30 00:23:40;;;;;;;35.33;18.17;;;;;;;7.80;100.00;98577.66;4930481;29;20225;-87
2021/12/30 00:26:07;;;;;;;32.03;14.73;;;;;;;5.91;100.00;98272.75;4931969;29;20255;-87
2021/12/30 00:28:33;;;;;;;24.03;12.63;;;;;;;7.33;100.00;98487.56;4941964;29;20182;-90
2021/12/30 00:31:00;;;;;;;21.90;11.07;;;;;;;6.35;100.00;98288.09;4929015;29;20192;-88
2021/12/30 00:33:28;;;;;;;20.07;11.20;;;;;;;7.97;100.00;98578.34;4928560;29;20715;-88
2021/12/30 00:35:54;;;;;;;17.63;8.93;;;;;;;7.88;100.00;98565.38;4928394;29;20229;-88
2021/12/30 00:38:21;;;;;;;18.47;10.27;;;;;;;6.41;100.00;98303.44;4933885;29;20178;-87
2021/12/30 00:40:48;;;;;;;21.17;10.43;;;;;;;5.34;100.00;98096.25;4932835;29;20341;-86
2021/12/30 00:43:13;;;;;;;19.83;10.13;;;;;;;6.78;100.00;98348.56;4930572;29;20166;-88
2021/12/30 00:45:39;;;;;;;19.97;9.93;;;;;;;5.27;100.00;98136.06;4931504;29;20170;-88
2021/12/30 00:48:08;;;;;;;19.93;10.80;;;;;;;4.70;100.00;98016.50;4933540;29;20174;-86
2021/12/30 00:50:36;;;;;;;18.23;9.63;;;;;;;4.29;100.00;97953.69;4930880;29;20189;-89
2021/12/30 00:53:05;;;;;;;20.47;11.23;;;;;;;3.84;100.00;97833.22;4932279;29;20205;-90
2021/12/30 00:55:33;;;;;;;17.27;10.53;;;;;;;4.35;100.00;97937.31;4931856;29;20170;-90
2021/12/30 00:57:59;;;;;;;18.80;10.20;;;;;;;4.85;100.00;98039.75;4931593;29;20237;-88
2021/12/30 01:00:25;;;;;;;21.10;11.47;;;;;;;4.12;100.00;97886.19;4930748;29;20174;-88
2021/12/30 01:02:52;;;;;;;17.60;8.70;;;;;;;4.82;100.00;98047.13;4931624;29;20158;-88
2021/12/30 01:05:17;;;;;;;19.57;10.77;;;;;;;3.62;100.00;97809.69;4929294;29;20185;-87
2021/12/30 01:07:43;;;;;;;16.80;9.63;;;;;;;4.84;100.00;98017.97;4932795;29;20178;-90
2021/12/30 01:10:13;;;;;;;14.13;8.57;;;;;;;6.05;100.00;98213.94;4931118;29;20176;-90
2021/12/30 01:12:39;;;;;;;13.60;8.43;;;;;;;5.05;100.00;98031.44;4929962;29;20266;-88
2021/12/30 01:15:09;;;;;;;13.03;7.07;;;;;;;4.34;100.00;97922.22;4925623;29;20242;-86
2021/12/30 01:17:51;;;;;;;14.90;8.40;;;;;;;4.45;100.00;97909.34;4931262;29;20178;-87
2021/12/30 01:20:19;;;;;;;13.57;7.17;;;;;;;5.16;100.00;98052.84;4927040;29;20178;-87
2021/12/30 01:22:47;;;;;;;13.40;7.57;;;;;;;4.56;100.00;97970.81;4926913;29;20242;-88
2021/12/30 01:25:16;;;;;;;13.37;7.50;;;;;;;5.62;100.00;98114.97;4928823;29;20175;-88
2021/12/30 01:27:45;;;;;;;11.67;6.97;;;;;;;5.36;100.00;98107.19;4929141;29;20166;-88
2021/12/30 01:30:17;;;;;;;11.67;6.23;;;;;;;3.79;100.00;97824.63;4928632;29;20205;-90
2021/12/30 01:32:44;;;;;;;12.13;7.07;;;;;;;4.04;100.00;97875.00;4929118;29;20223;-86
2021/12/30 01:35:14;;;;;;;12.37;7.47;;;;;;;5.55;100.00;98153.19;4928683;29;20182;-87
2021/12/30 01:37:40;;;;;;;12.90;7.37;;;;;;;6.70;100.00;98308.81;4928714;29;20174;-86
2021/12/30 01:40:11;;;;;;;11.07;6.67;;;;;;;4.83;100.00;98021.28;4928650;29;20288;-88
2021/12/30 01:42:38;;;;;;;8.20;4.53;;;;;;;6.61;100.00;98283.28;4928862;29;20218;-89
2021/12/30 01:45:05;;;;;;;11.23;6.90;;;;;;;4.85;100.00;98018.84;4943848;29;20657;-88
2021/12/30 01:47:31;;;;;;;11.87;7.70;;;;;;;4.99;100.00;98056.25;4926571;29;20178;-89
2021/12/30 01:49:56;;;;;;;11.50;7.10;;;;;;;5.16;100.00;98075.41;4927536;29;20577;-87
2021/12/30 01:52:22;;;;;;;9.23;5.87;;;;;;;6.86;100.00;98357.28;4932742;29;20217;-86
2021/12/30 01:54:48;;;;;;;13.97;8.90;;;;;;;4.32;100.00;97942.16;4934105;29;20174;-86
2021/12/30 01:57:14;;;;;;;12.93;8.20;;;;;;;4.66;100.00;97964.56;4930241;29;20174;-87
2021/12/30 01:59:41;;;;;;;13.80;7.87;;;;;;;5.14;100.00;98076.09;4932119;29;20193;-84
2021/12/30 02:02:07;;;;;;;13.27;7.27;;;;;;;5.86;100.00;98203.91;4935126;29;20170;-86
2021/12/30 02:04:33;;;;;;;12.47;6.97;;;;;;;4.78;100.00;98010.19;4932554;29;20220;-87
2021/12/30 02:06:59;;;;;;;12.00;7.40;;;;;;;5.96;100.00;98202.66;4931093;29;20174;-88
2021/12/30 02:09:25;;;;;;;11.20;7.07;;;;;;;5.61;100.00;98160.94;4930061;29;20204;-89
2021/12/30 02:11:51;;;;;;;9.23;5.67;;;;;;;7.35;100.00;98487.63;4944723;29;20181;-88
2021/12/30 02:14:17;;;;;;;11.17;6.87;;;;;;;4.60;100.00;97979.31;4945224;29;20174;-87
2021/12/30 02:16:44;;;;;;;12.60;7.40;;;;;;;5.17;100.00;98079.59;4926235;29;20198;-87
2021/12/30 02:19:09;;;;;;;14.87;7.83;;;;;;;6.78;100.00;98371.22;4928242;29;20192;-87
2021/12/30 02:21:36;;;;;;;14.43;7.50;;;;;;;7.21;100.00;98421.63;4926243;29;20272;-86
2021/12/30 02:24:04;;;;;;;20.77;8.70;;;;;;;4.75;100.00;98000.03;4925869;29;20185;-88
2021/12/30 02:26:29;;;;;;;21.23;9.43;;;;;;;5.70;100.00;98178.91;4926260;29;20178;-88
2021/12/30 02:28:56;;;;;;;19.37;8.40;;;;;;;8.20;100.00;98610.38;4926577;29;20166;-88
2021/12/30 02:31:27;;;;;;;18.77;8.30;;;;;;;8.21;100.00;98628.06;4927856;29;20185;-87
2021/12/30 02:33:58;;;;;;;22.90;9.70;;;;;;;5.68;100.00;98225.69;4928067;29;20197;-88
2021/12/30 02:36:35;;;;;;;19.97;10.47;;;;;;;5.98;100.00;98232.06;4929125;29;20166;-88
2021/12/30 02:39:05;;;;;;;12.87;7.20;;;;;;;4.87;100.00;98069.88;4929134;29;20623;-88
2021/12/30 02:41:34;;;;;;;8.50;5.80;;;;;;;7.55;100.00;98534.66;4929909;29;20244;-86
2021/12/30 02:44:02;;;;;;;8.67;6.10;;;;;;;5.10;100.00;98157.91;4931145;29;20276;-87
2021/12/30 02:46:31;;;;;;;7.50;5.17;;;;;;;3.18;100.00;97833.53;4926373;29;20196;-87
2021/12/30 02:48:58;;;;;;;7.67;4.47;;;;;;;5.77;100.00;98264.59;4929385;29;20186;-88
2021/12/30 02:51:25;;;;;;;8.73;5.07;;;;;;;4.32;100.00;98044.88;4929680;29;20181;-86
2021/12/30 02:53:52;;;;;;;9.40;5.50;;;;;;;5.63;100.00;98262.28;4913509;29;20213;-88
2021/12/30 02:56:20;;;;;;;7.10;4.43;;;;;;;5.74;100.00;98286.22;4929081;29;20233;-87
2021/12/30 02:58:46;;;;;;;10.10;5.27;;;;;;;3.30;100.00;97863.22;4943448;29;20232;-88
2021/12/30 03:01:33;;;;;;;10.37;5.77;;;;;;;4.37;100.00;98023.38;4927610;29;20186;-88
2021/12/30 03:04:03;;;;;;;10.20;6.00;;;;;;;4.04;100.00;97991.78;4911382;29;20186;-86
2021/12/30 03:06:31;;;;;;;6.27;4.17;;;;;;;6.58;100.00;98451.59;4926682;29;20199;-86
2021/12/30 03:08:57;;;;;;;8.30;5.40;;;;;;;3.92;100.00;97994.63;4911184;29;20190;-85
2021/12/30 03:11:24;;;;;;;9.67;5.07;;;;;;;7.85;100.00;98653.44;4911277;29;20202;-86
2021/12/30 03:13:52;;;;;;;7.57;4.60;;;;;;;5.35;100.00;98251.03;4910219;29;20218;-86
2021/12/30 03:16:21;;;;;;;10.10;5.90;;;;;;;4.42;100.00;98106.28;4913555;29;20190;-86
2021/12/30 03:18:50;;;;;;;12.20;6.77;;;;;;;7.09;100.00;98529.31;4929971;29;20184;-85
2021/12/30 03:21:19;;;;;;;9.53;5.90;;;;;;;7.55;100.00;98638.72;4899132;29;20198;-88
2021/12/30 03:23:45;;;;;;;11.63;7.50;;;;;;;4.17;100.00;98032.47;4929851;29;20177;-87
2021/12/30 03:26:11;;;;;;;7.40;4.53;;;;;;;3.92;100.00;98014.63;4897562;29;20256;-88
2021/12/30 03:28:42;;;;;;;7.83;5.10;;;;;;;4.15;100.00;98100.81;4927041;29;20190;-88
2021/12/30 03:31:08;;;;;;;6.97;4.97;;;;;;;4.43;100.00;98102.97;4912145;29;20170;-88
2021/12/30 03:33:34;;;;;;;8.00;5.40;;;;;;;4.09;100.00;98098.88;4913559;29;20221;-86
2021/12/30 03:36:01;;;;;;;9.70;5.63;;;;;;;6.30;100.00;98465.47;4931133;29;20214;-89
2021/12/30 03:38:29;;;;;;;7.83;4.87;;;;;;;6.08;100.00;98440.16;4932348;29;20177;-89
2021/12/30 03:40:55;;;;;;;7.47;4.50;;;;;;;5.69;100.00;98418.19;4931318;29;20237;-85
2021/12/30 03:43:21;;;;;;;9.17;4.77;;;;;;;4.76;100.00;98253.25;4933718;29;20225;-87
2021/12/30 03:45:46;;;;;;;8.33;5.30;;;;;;;2.95;100.00;97941.53;4934578;29;20170;-87
2021/12/30 03:48:13;;;;;;;8.43;4.77;;;;;;;3.62;100.00;98050.72;4929022;29;20237;-88
2021/12/30 03:50:43;;;;;;;8.33;4.80;;;;;;;5.03;100.00;98286.28;4925982;29;20190;-87
2021/12/30 03:53:13;;;;;;;7.80;4.90;;;;;;;4.14;100.00;98125.03;4927761;29;20217;-87
2021/12/30 03:55:39;;;;;;;7.87;4.97;;;;;;;3.31;100.00;98002.47;4926260;29;20186;-87
2021/12/30 03:58:05;;;;;;;8.53;5.20;;;;;;;3.31;100.00;97993.34;4926912;29;20190;-87
2021/12/30 04:00:32;;;;;;;8.10;5.73;;;;;;;5.41;100.00;98370.03;4925325;29;20241;-87
2021/12/30 04:02:57;;;;;;;8.30;4.80;;;;;;;5.29;100.00;98362.78;4927088;29;20185;-87
2021/12/30 04:05:23;;;;;;;8.20;5.33;;;;;;;5.18;100.00;98356.38;4928318;29;20579;-89
2021/12/30 04:07:49;;;;;;;8.60;5.50;;;;;;;6.10;100.00;98513.09;4932115;29;20174;-87
2021/12/30 04:10:16;;;;;;;8.20;5.17;;;;;;;7.18;100.00;98690.78;4931093;29;20229;-88
2021/12/30 04:12:46;;;;;;;9.03;6.10;;;;;;;6.19;100.00;98554.56;4911450;29;20205;-85
2021/12/30 04:15:11;;;;;;;7.80;5.97;;;;;;;3.53;100.00;98082.78;4942602;29;20174;-87
2021/12/30 04:17:37;;;;;;;8.27;5.40;;;;;;;2.78;100.00;97965.66;4926484;29;20170;-87
2021/12/30 04:20:10;;;;;;;9.67;6.00;;;;;;;7.47;100.00;98758.41;4926703;29;20646;-89
2021/12/30 04:22:37;;;;;;;9.10;5.50;;;;;;;3.29;100.00;98086.56;4926260;29;20262;-87
2021/12/30 04:25:03;;;;;;;9.37;6.10;;;;;;;3.48;100.00;98086.69;4942389;29;20186;-86
2021/12/30 04:27:29;;;;;;;7.40;4.17;;;;;;;4.90;100.00;98368.38;4927180;29;20198;-86
2021/12/30 04:29:54;;;;;;;7.13;5.07;;;;;;;5.29;100.00;98479.06;4925552;29;20193;-87
2021/12/30 04:32:20;;;;;;;8.27;5.30;;;;;;;3.75;100.00;98194.78;4928308;29;20539;-87
2021/12/30 04:34:45;;;;;;;8.87;5.70;;;;;;;3.39;100.00;98112.09;4927865;29;20174;-87
2021/12/30 04:37:11;;;;;;;6.77;4.80;;;;;;;4.84;100.00;98390.63;4931613;29;20186;-86
2021/12/30 04:39:36;;;;;;;8.47;5.90;;;;;;;3.68;100.00;98168.59;4931984;29;20174;-87
2021/12/30 04:42:02;;;;;;;7.97;5.23;;;;;;;2.90;100.00;98048.75;4943786;29;20230;-86
2021/12/30 04:44:29;;;;;;;8.10;4.97;;;;;;;5.49;100.00;98505.13;4927878;29;20246;-88
2021/12/30 04:46:55;;;;;;;7.13;4.27;;;;;;;3.74;100.00;98218.94;4926376;29;20185;-88
2021/12/30 04:49:21;;;;;;;5.80;4.10;;;;;;;4.95;100.00;98415.47;4927121;29;20186;-88
2021/12/30 04:51:47;;;;;;;6.33;4.70;;;;;;;6.22;100.00;98644.31;4927088;29;20238;-86
2021/12/30 04:54:16;;;;;;;6.63;4.20;;;;;;;5.01;100.00;98453.38;4926695;29;20201;-86
2021/12/30 04:56:43;;;;;;;6.70;4.40;;;;;;;3.87;100.00;98221.31;4925104;29;20232;-87
2021/12/30 04:59:09;;;;;;;6.50;4.60;;;;;;;4.80;100.00;98416.34;4930793;29;20194;-85
2021/12/30 05:01:35;;;;;;;7.00;4.40;;;;;;;5.93;100.00;98611.09;4935954;29;20166;-86
2021/12/30 05:04:01;;;;;;;5.70;3.73;;;;;;;7.22;100.00;98856.28;4940595;29;20189;-86
2021/12/30 05:06:28;;;;;;;7.57;4.60;;;;;;;6.97;100.00;98792.97;4927074;29;20186;-85
2021/12/30 05:08:54;;;;;;;5.70;3.63;;;;;;;6.04;100.00;98671.06;4931166;29;20230;-86
2021/12/30 05:11:19;;;;;;;8.40;4.30;;;;;;;6.91;100.00;98832.94;4925810;29;20193;-86
2021/12/30 05:13:45;;;;;;;4.57;3.20;;;;;;;5.50;100.00;98618.91;4924571;29;20210;-86
2021/12/30 05:16:10;;;;;;;6.60;4.30;;;;;;;4.54;100.00;98417.53;4923331;29;20186;-86
2021/12/30 05:18:36;;;;;;;13.70;6.57;;;;;;;5.69;100.00;98645.03;4923752;29;20193;-87
2021/12/30 05:21:04;;;;;;;6.87;4.37;;;;;;;2.98;100.00;98192.47;4924983;29;20174;-87
2021/12/30 05:23:30;;;;;;;6.10;3.93;;;;;;;2.52;100.00;98138.31;4925143;29;20875;-87
2021/12/30 05:25:56;;;;;;;5.60;3.63;;;;;;;2.87;100.00;98221.03;4925074;29;20445;-87
2021/12/30 05:28:21;;;;;;;7.93;4.70;;;;;;;5.91;100.00;98722.31;4940116;29;20272;-87
2021/12/30 05:30:47;;;;;;;5.40;3.87;;;;;;;5.33;100.00;98577.91;4925483;29;20218;-87
2021/12/30 05:33:13;;;;;;;4.90;2.73;;;;;;;4.26;100.00;98429.44;4925022;29;20205;-86
2021/12/30 05:35:40;;;;;;;7.23;3.90;;;;;;;6.87;100.00;98886.38;4924437;29;20214;-87
2021/12/30 05:38:06;;;;;;;10.77;5.33;;;;;;;4.72;100.00;98544.66;4939245;29;20564;-86
2021/12/30 05:40:32;;;;;;;6.43;3.20;;;;;;;5.74;100.00;98708.88;4923677;29;20516;-87
2021/12/30 05:42:58;;;;;;;14.03;6.40;;;;;;;5.35;100.00;98657.53;4929580;29;20166;-86
2021/12/30 05:45:26;;;;;;;23.00;12.53;;;;;;;2.89;100.00;98276.94;4924267;29;20181;-88
2021/12/30 05:47:53;;;;;;;7.30;4.83;;;;;;;2.81;100.00;98258.16;4923552;29;20414;-87
2021/12/30 05:50:25;;;;;;;10.70;5.77;;;;;;;3.21;100.00;98297.84;4924835;29;20457;-88
2021/12/30 05:52:50;;;;;;;37.40;18.30;;;;;;;5.46;100.00;98680.66;4908939;29;20470;-88
2021/12/30 05:55:19;;;;;;;25.07;12.60;;;;;;;3.13;100.00;98271.56;4925446;29;20422;-88
2021/12/30 05:57:45;;;;;;;12.83;8.20;;;;;;;5.43;100.00;98672.09;4929379;29;20615;-87
2021/12/30 06:00:14;;;;;;;13.33;8.20;;;;;;;5.22;100.00;98661.78;4929225;29;20252;-87
2021/12/30 06:02:42;;;;;;;8.97;5.73;;;;;;;4.44;100.00;98593.25;4929401;29;20170;-88
2021/12/30 06:05:09;;;;;;;5.40;4.17;;;;;;;4.04;100.00;98493.41;4929349;29;20458;-87
2021/12/30 06:07:34;;;;;;;7.27;4.37;;;;;;;4.85;100.00;98651.47;4914167;29;20442;-90
2021/12/30 06:10:00;;;;;;;17.10;10.90;;;;;;;5.62;100.00;98727.50;4914580;29;20430;-86
2021/12/30 06:12:26;;;;;;;39.33;19.57;;;;;;;5.35;100.00;98736.94;4930215;29;20194;-87
2021/12/30 06:14:52;;;;;;;25.67;14.47;;;;;;;5.25;100.00;98710.50;4913558;29;20227;-88
2021/12/30 06:17:17;;;;;;;11.40;6.80;;;;;;;4.72;100.00;98634.06;4931251;29;20290;-88
2021/12/30 06:19:44;;;;;;;17.40;7.87;;;;;;;5.32;100.00;98727.63;4916467;29;20194;-87
2021/12/30 06:22:13;;;;;;;147.63;39.37;;;;;;;2.94;100.00;98354.66;4932909;29;20193;-88
2021/12/30 06:24:40;;;;;;;23.07;9.60;;;;;;;2.80;100.00;98351.38;4933490;29;20195;-89
2021/12/30 06:27:06;;;;;;;49.33;17.30;;;;;;;3.30;100.00;98398.34;4932128;29;20422;-89
2021/12/30 06:29:33;;;;;;;82.33;26.97;;;;;;;5.25;100.00;98740.59;4930721;29;20426;-89
2021/12/30 06:31:58;;;;;;;161.40;50.87;;;;;;;3.13;100.00;98376.56;4910856;29;20178;-90
2021/12/30 06:34:24;;;;;;;37.03;21.00;;;;;;;2.47;100.00;98254.59;4916570;29;20200;-86
2021/12/30 06:36:50;;;;;;;39.67;28.73;;;;;;;3.14;100.00;98400.78;4934583;29;20182;-88
2021/12/30 06:39:16;;;;;;;11.93;7.73;;;;;;;3.15;100.00;98452.50;4936042;29;20177;-88
2021/12/30 06:41:42;;;;;;;28.07;18.07;;;;;;;2.98;100.00;98397.44;4917247;29;20217;-88
2021/12/30 06:44:07;;;;;;;119.37;41.87;;;;;;;2.85;100.00;98346.66;4931637;29;20441;-87
2021/12/30 06:46:33;;;;;;;32.03;17.50;;;;;;;3.20;100.00;98438.63;4930066;29;20170;-86
2021/12/30 06:48:59;;;;;;;11.87;7.87;;;;;;;3.70;100.00;98509.88;4929589;29;20241;-86
2021/12/30 06:51:27;;;;;;;9.83;6.00;;;;;;;5.49;100.00;98811.34;4936234;29;20173;-88
2021/12/30 06:53:55;;;;;;;11.13;6.60;;;;;;;2.99;100.00;98426.63;4932993;29;20201;-88
2021/12/30 06:56:23;;;;;;;9.60;5.80;;;;;;;3.01;100.00;98456.72;4932988;29;20410;-88
2021/12/30 06:58:48;;;;;;;10.33;6.83;;;;;;;2.34;100.00;98337.03;4929411;29;20418;-89
2021/12/30 07:01:14;;;;;;;8.67;5.20;;;;;;;2.89;100.00;98411.88;4931524;29;20411;-87
2021/12/30 07:03:40;;;;;;;10.97;7.20;;;;;;;4.25;100.00;98691.59;4929422;29;20199;-87
2021/12/30 07:06:07;;;;;;;9.47;7.07;;;;;;;5.24;100.00;98894.47;4930716;29;20173;-88
2021/12/30 07:08:33;;;;;;;25.17;10.53;;;;;;;2.95;100.00;98456.38;4930015;29;20176;-89
2021/12/30 07:10:59;;;;;;;36.53;17.93;;;;;;;6.83;100.00;99090.81;4934016;29;20434;-87
2021/12/30 07:13:27;;;;;;;9.40;6.23;;;;;;;5.21;100.00;98891.78;4932356;29;20194;-88
2021/12/30 07:15:53;;;;;;;56.50;19.33;;;;;;;4.78;100.00;98803.22;4931188;29;20426;-88
2021/12/30 07:18:18;;;;;;;43.70;26.07;;;;;;;3.74;100.00;98621.00;4928843;29;20453;-90
2021/12/30 07:20:45;;;;;;;34.17;23.70;;;;;;;4.83;100.00;98760.88;4932586;29;20177;-88
2021/12/30 07:23:11;;;;;;;11.20;6.90;;;;;;;6.08;100.00;99025.53;4933106;29;20166;-87
2021/12/30 07:25:37;;;;;;;18.93;11.23;;;;;;;2.95;100.00;98509.72;4932667;29;20470;-86
2021/12/30 07:28:04;;;;;;;13.80;6.80;;;;;;;2.86;100.00;98461.69;4928018;29;20186;-89
2021/12/30 07:30:31;;;;;;;15.47;8.20;;;;;;;3.36;100.00;98568.75;4927627;29;20624;-88
2021/12/30 07:32:56;;;;;;;29.40;19.73;;;;;;;3.52;100.00;98583.88;4928629;29;20514;-87
2021/12/30 07:35:22;;;;;;;23.07;13.70;;;;;;;5.55;100.00;98893.66;4924182;29;20414;-86
2021/12/30 07:37:49;;;;;;;26.60;13.00;;;;;;;2.88;100.00;98485.13;4909229;29;20185;-87
2021/12/30 07:40:16;;;;;;;28.57;13.80;;;;;;;7.06;100.00;99145.72;4936012;29;20475;-87
2021/12/30 07:42:42;;;;;;;26.20;11.73;;;;;;;2.87;100.00;98493.41;4934689;29;20437;-86
2021/12/30 07:45:10;;;;;;;80.73;40.03;;;;;;;3.02;100.00;98493.47;4935183;29;20945;-90
2021/12/30 07:47:37;;;;;;;212.33;97.53;;;;;;;3.02;100.00;98468.47;4935062;29;20552;-87
2021/12/30 07:50:04;;;;;;;16.67;9.47;;;;;;;5.65;100.00;98906.78;4953057;29;20182;-87
2021/12/30 07:52:30;;;;;;;24.17;11.80;;;;;;;3.37;100.00;98533.84;4951939;29;20594;-88
2021/12/30 07:54:55;;;;;;;14.00;6.50;;;;;;;7.22;100.00;99197.75;4932626;29;20178;-89
2021/12/30 07:57:22;;;;;;;18.20;8.63;;;;;;;3.41;100.00;98519.84;4949495;29;20228;-87
2021/12/30 07:59:52;;;;;;;18.30;8.30;;;;;;;7.20;100.00;99185.06;4926917;29;20185;-87
2021/12/30 08:02:17;;;;;;;21.90;11.07;;;;;;;4.10;100.00;98648.13;4946870;29;20922;-87
2021/12/30 08:04:43;;;;;;;26.23;10.93;;;;;;;7.55;100.00;99197.84;4932064;29;20473;-87
2021/12/30 08:07:10;;;;;;;19.53;9.77;;;;;;;5.08;100.00;98796.53;4935249;29;20231;-88
2021/12/30 08:09:36;;;;;;;33.57;16.30;;;;;;;5.85;100.00;98933.00;4937421;29;20181;-88
2021/12/30 08:12:01;;;;;;;25.03;12.07;;;;;;;6.31;100.00;98953.91;4933266;29;20282;-87
2021/12/30 08:14:27;;;;;;;35.13;15.63;;;;;;;4.53;100.00;98643.88;4948089;29;20220;-88
2021/12/30 08:16:53;;;;;;;31.70;12.83;;;;;;;4.24;100.00;98556.22;4930361;29;20182;-86
2021/12/30 08:19:19;;;;;;;23.53;10.53;;;;;;;5.52;100.00;98835.75;4914434;29;20727;-86
2021/12/30 08:21:44;;;;;;;30.40;12.67;;;;;;;3.64;100.00;98466.13;4946966;29;20552;-87
2021/12/30 08:24:10;;;;;;;15.23;7.67;;;;;;;6.70;100.00;99020.50;4947855;29;20567;-85
2021/12/30 08:26:38;;;;;;;23.63;9.83;;;;;;;3.91;100.00;98548.59;4931888;29;20173;-85
2021/12/30 08:29:06;;;;;;;18.23;8.80;;;;;;;5.89;100.00;98869.59;4947958;29;20169;-87
2021/12/30 08:31:35;;;;;;;36.23;15.00;;;;;;;7.13;100.00;99093.28;4947474;29;20234;-86
2021/12/30 08:34:02;;;;;;;29.00;13.57;;;;;;;4.88;100.00;98709.31;4945484;29;20232;-88
2021/12/30 08:36:27;;;;;;;25.67;14.03;;;;;;;6.28;100.00;98952.09;4964513;29;20188;-86
2021/12/30 08:38:53;;;;;;;19.50;8.23;;;;;;;7.65;100.00;99211.78;4962242;29;20247;-86
2021/12/30 08:41:18;;;;;;;37.20;17.07;;;;;;;6.33;100.00;98980.84;4965617;29;20232;-88
2021/12/30 08:43:44;;;;;;;40.33;17.33;;;;;;;6.94;100.00;99084.69;4947793;29;20192;-86
2021/12/30 08:46:09;;;;;;;41.87;16.00;;;;;;;6.05;100.00;98912.31;4949599;29;20200;-86
2021/12/30 08:48:36;;;;;;;43.77;18.37;;;;;;;6.82;100.00;99043.78;4950449;29;20259;-87
2021/12/30 08:51:02;;;;;;;80.43;28.87;;;;;;;6.01;100.00;98910.44;4950091;29;20177;-85
2021/12/30 08:53:29;;;;;;;27.60;11.90;;;;;;;6.54;100.00;99007.13;4946401;29;20207;-85
2021/12/30 08:55:55;;;;;;;68.50;31.63;;;;;;;7.12;100.00;99080.59;4947064;29;20628;-87
2021/12/30 08:58:20;;;;;;;42.00;17.20;;;;;;;7.30;100.00;99147.03;4952887;29;20184;-86
2021/12/30 09:00:47;;;;;;;23.67;11.00;;;;;;;6.44;100.00;98956.28;4955686;29;20195;-86
2021/12/30 09:03:14;;;;;;;25.47;12.77;;;;;;;7.29;100.00;99125.13;4951650;29;20220;-86
2021/12/30 09:05:40;;;;;;;101.80;35.70;;;;;;;8.27;100.00;99255.34;4961738;28;20653;-86
2021/12/30 09:08:10;;;;;;;148.33;47.00;;;;;;;8.17;100.00;99256.53;4963585;29;20248;-87
2021/12/30 09:10:45;;;;;;;117.87;47.60;;;;;;;8.28;100.00;99260.47;4944073;29;20270;-86
2021/12/30 09:13:10;;;;;;;14.70;7.57;;;;;;;7.65;100.00;99164.81;4958437;29;20212;-89
2021/12/30 09:15:37;;;;;;;39.23;23.50;;;;;;;8.30;100.00;99271.50;4957169;29;20196;-88
2021/12/30 09:18:05;;;;;;;25.47;13.77;;;;;;;6.72;100.00;99011.38;4947898;29;20196;-84
2021/12/30 09:20:31;;;;;;;25.33;14.83;;;;;;;6.97;100.00;99075.66;4944881;29;20188;-86
2021/12/30 09:22:57;;;;;;;49.07;24.93;;;;;;;6.26;100.00;98965.38;4964038;28;20279;-85
2021/12/30 09:25:24;;;;;;;33.30;17.53;;;;;;;8.09;100.00;99272.91;4948534;29;20224;-86
2021/12/30 09:27:51;;;;;;;11.03;5.87;;;;;;;8.00;100.00;99282.53;4949239;29;20204;-87
2021/12/30 09:30:17;;;;;;;21.63;10.60;;;;;;;7.54;100.00;99213.75;4965746;29;20195;-89
2021/12/30 09:32:44;;;;;;;22.53;11.27;;;;;;;7.45;100.00;99194.78;4937352;28;20201;-87
2021/12/30 09:35:12;;;;;;;23.67;15.27;;;;;;;7.13;100.00;99092.41;4959751;29;20203;-85
2021/12/30 09:37:39;;;;;;;46.63;26.97;;;;;;;8.59;100.00;99272.09;4961057;28;20188;-86
2021/12/30 09:40:08;;;;;;;63.20;25.70;;;;;;;6.49;100.00;98960.75;4964558;29;20230;-88
2021/12/30 09:42:36;;;;;;;39.60;16.13;;;;;;;6.14;100.00;98907.78;4948518;29;20603;-87
2021/12/30 09:45:04;;;;;;;14.57;8.83;;;;;;;5.26;100.00;98724.78;4947051;29;20180;-87
2021/12/30 09:47:30;;;;;;;19.40;12.00;;;;;;;5.63;100.00;98780.28;4951527;29;20184;-86
2021/12/30 09:49:56;;;;;;;16.40;10.00;;;;;;;7.23;100.00;99020.72;4966769;29;20207;-88
2021/12/30 09:52:21;;;;;;;16.93;10.37;;;;;;;6.35;100.00;98944.09;4964660;29;20215;-87
2021/12/30 09:54:47;;;;;;;10.33;7.20;;;;;;;7.14;100.00;99033.75;4946378;29;20184;-87
2021/12/30 09:57:12;;;;;;;35.23;19.10;;;;;;;6.92;100.00;99020.84;4944665;29;20673;-86
2021/12/30 09:59:38;;;;;;;12.13;5.97;;;;;;;4.91;99.45;98681.91;4945842;29;20180;-86
2021/12/30 10:02:05;;;;;;;18.57;7.90;;;;;;;5.18;99.68;98708.47;4946800;29;20185;-88
2021/12/30 10:04:33;;;;;;;27.40;14.20;;;;;;;8.57;100.00;99296.38;4963566;29;20157;-85
2021/12/30 10:07:00;;;;;;;13.70;8.43;;;;;;;7.31;100.00;99092.47;4931124;29;20204;-87
2021/12/30 10:09:49;;;;;;;35.77;16.33;;;;;;;8.64;100.00;99311.03;4964052;29;20188;-85
2021/12/30 10:12:44;;;;;;;15.10;7.53;;;;;;;5.18;100.00;98705.94;4962506;29;20161;-86
2021/12/30 10:15:11;;;;;;;26.63;12.67;;;;;;;6.96;100.00;99017.69;4944154;29;20183;-88
2021/12/30 10:17:37;;;;;;;26.70;12.90;;;;;;;4.88;100.00;98670.84;4949595;29;20189;-87
2021/12/30 10:20:25;;;;;;;19.90;8.87;;;;;;;8.62;100.00;99308.44;4945611;29;20654;-86
2021/12/30 10:22:55;;;;;;;42.73;17.07;;;;;;;7.51;100.00;99075.09;4954268;28;20188;-86
2021/12/30 10:25:27;;;;;;;12.13;6.50;;;;;;;8.36;99.68;99253.28;4957406;28;20222;-86
2021/12/30 10:27:53;;;;;;;12.77;5.83;;;;;;;7.44;98.45;99108.31;4960661;29;20184;-85
2021/12/30 10:30:35;;;;;;;8.77;4.77;;;;;;;8.73;98.40;99314.88;4962135;29;20199;-89
2021/12/30 10:33:15;;;;;;;9.60;5.07;;;;;;;8.73;97.15;99312.34;4952253;29;20208;-86
2021/12/30 10:35:41;;;;;;;11.43;6.50;;;;;;;6.41;97.21;98924.31;4962112;28;20208;-88
2021/12/30 10:38:09;;;;;;;12.60;6.77;;;;;;;7.13;97.09;99059.69;4963362;29;20176;-86
2021/12/30 10:40:37;;;;;;;30.00;12.73;;;;;;;8.03;97.27;99176.81;4938598;29;20244;-87
2021/12/30 10:43:35;;;;;;;17.27;8.30;;;;;;;8.86;97.41;99324.78;4940844;29;20706;-86
2021/12/30 10:46:06;;;;;;;13.50;6.63;;;;;;;8.71;96.20;99351.78;4941970;29;20193;-86
2021/12/30 10:48:34;;;;;;;12.03;6.30;;;;;;;8.51;96.93;99322.19;4929770;29;20281;-86
2021/12/30 10:51:18;;;;;;;29.43;14.27;;;;;;;8.86;96.09;99329.84;4922013;29;20225;-86
2021/12/30 10:53:44;;;;;;;52.33;27.73;;;;;;;8.06;95.61;99197.13;4919655;29;20213;-86
2021/12/30 10:56:29;;;;;;;19.63;11.20;;;;;;;8.48;96.69;99299.31;4918808;29;20189;-87
2021/12/30 10:59:20;;;;;;;18.97;10.27;;;;;;;7.97;97.68;99204.22;4934470;29;20190;-85
2021/12/30 11:01:49;;;;;;;13.87;7.67;;;;;;;8.71;97.83;99349.25;4920704;29;20234;-87
2021/12/30 11:04:15;;;;;;;18.60;9.67;;;;;;;8.03;97.63;99218.78;4922562;29;20174;-89
2021/12/30 11:06:48;;;;;;;15.53;9.67;;;;;;;7.35;98.50;99084.31;4933077;29;20182;-89
2021/12/30 11:09:21;;;;;;;12.90;8.23;;;;;;;5.49;97.83;98750.22;4931946;29;20635;-88
2021/12/30 11:11:56;;;;;;;12.40;6.63;;;;;;;5.21;98.58;98728.69;4929879;29;20182;-86
2021/12/30 11:14:24;;;;;;;14.77;7.93;;;;;;;5.80;98.99;98773.63;4931823;29;20241;-87
2021/12/30 11:17:18;;;;;;;22.10;10.97;;;;;;;9.07;100.00;99347.66;4927736;29;20182;-89
2021/12/30 11:19:53;;;;;;;14.63;7.20;;;;;;;9.01;100.00;99389.44;4928024;29;20169;-88
2021/12/30 11:22:24;;;;;;;7.83;4.83;;;;;;;6.56;100.00;98939.31;4933065;29;20233;-87
2021/12/30 11:24:51;;;;;;;8.80;4.80;;;;;;;5.06;99.34;98667.66;4947890;29;20694;-88
2021/12/30 11:27:18;;;;;;;9.87;4.77;;;;;;;5.63;98.70;98770.22;4928549;29;20648;-89